Brandon, Wisconsin
Current Conditions -  °F | °C
As of 3:53 PM on Thursday 23 Oct 2014 (Local Time) from KFLD Reporting Station
Light Rain Light Rain  
Wind Chill: 51°   Ceiling: 2500
Heat Index: 51°   Visibility: 6mi
Dew Point: 46°   Wind: 10mph
Humidity: 83%   Direction: 200°SSW
Pressure: 30.06"   Gusts: NA
Location:  43.74°N, 88.78°W
Report Text: KFLD 232053Z AUTO 20009KT 6SM -RA BKN025 OVC034 11/08 A3006 RMK AO2 SLP186 P0005 60006 T01060078 55010
Loading
Personal Weather Stations






























Interactive Weather Map
Tropical Storm Tracking
New forecast layout! Learn more

10-Day Weather Forecast

Advertisements
Track Severe Weather on mobile